sensor_id;sensor_type;location;lat;lon;timestamp;P1;durP1;ratioP1;P2;durP2;ratioP2
5379;SDS011;2713;42.680;23.310;2023-12-07T00:02:12;23.20;;;14.97;;
5379;SDS011;2713;42.680;23.310;2023-12-07T00:04:40;21.60;;;14.87;;
5379;SDS011;2713;42.680;23.310;2023-12-07T00:07:06;21.80;;;14.10;;
5379;SDS011;2713;42.680;23.310;2023-12-07T00:09:33;18.97;;;13.07;;
5379;SDS011;2713;42.680;23.310;2023-12-07T00:12:00;20.07;;;13.73;;
5379;SDS011;2713;42.680;23.310;2023-12-07T00:14:27;20.33;;;13.60;;
5379;SDS011;2713;42.680;23.310;2023-12-07T00:16:54;19.00;;;13.67;;
5379;SDS011;2713;42.680;23.310;2023-12-07T00:19:20;22.90;;;14.17;;
5379;SDS011;2713;42.680;23.310;2023-12-07T00:21:47;22.37;;;14.70;;
5379;SDS011;2713;42.680;23.310;2023-12-07T00:24:14;25.40;;;15.17;;
5379;SDS011;2713;42.680;23.310;2023-12-07T00:26:41;24.00;;;14.33;;
5379;SDS011;2713;42.680;23.310;2023-12-07T00:29:08;24.67;;;16.27;;
5379;SDS011;2713;42.680;23.310;2023-12-07T00:31:35;20.40;;;15.10;;
5379;SDS011;2713;42.680;23.310;2023-12-07T00:34:02;26.50;;;16.17;;
5379;SDS011;2713;42.680;23.310;2023-12-07T00:36:30;23.10;;;16.63;;
5379;SDS011;2713;42.680;23.310;2023-12-07T00:38:58;27.20;;;17.40;;
5379;SDS011;2713;42.680;23.310;2023-12-07T00:41:25;28.67;;;17.43;;
5379;SDS011;2713;42.680;23.310;2023-12-07T00:43:52;24.50;;;16.93;;
5379;SDS011;2713;42.680;23.310;2023-12-07T00:46:18;28.37;;;16.67;;
5379;SDS011;2713;42.680;23.310;2023-12-07T00:48:45;28.27;;;16.77;;
5379;SDS011;2713;42.680;23.310;2023-12-07T00:51:12;23.70;;;15.80;;
5379;SDS011;2713;42.680;23.310;2023-12-07T00:53:40;23.37;;;15.97;;
5379;SDS011;2713;42.680;23.310;2023-12-07T00:56:09;26.80;;;16.07;;
5379;SDS011;2713;42.680;23.310;2023-12-07T00:58:36;25.77;;;16.50;;
5379;SDS011;2713;42.680;23.310;2023-12-07T01:01:03;24.97;;;16.03;;
5379;SDS011;2713;42.680;23.310;2023-12-07T01:03:30;25.93;;;17.57;;
5379;SDS011;2713;42.680;23.310;2023-12-07T01:05:57;24.70;;;15.90;;
5379;SDS011;2713;42.680;23.310;2023-12-07T01:08:24;27.07;;;16.70;;
5379;SDS011;2713;42.680;23.310;2023-12-07T01:10:51;25.03;;;17.33;;
5379;SDS011;2713;42.680;23.310;2023-12-07T01:13:19;29.60;;;16.60;;
5379;SDS011;2713;42.680;23.310;2023-12-07T01:15:46;30.80;;;17.90;;
5379;SDS011;2713;42.680;23.310;2023-12-07T01:18:12;27.57;;;15.97;;
5379;SDS011;2713;42.680;23.310;2023-12-07T01:20:39;26.53;;;16.90;;
5379;SDS011;2713;42.680;23.310;2023-12-07T01:23:06;28.17;;;17.33;;
5379;SDS011;2713;42.680;23.310;2023-12-07T01:25:33;25.57;;;16.73;;
5379;SDS011;2713;42.680;23.310;2023-12-07T01:28:00;26.73;;;16.30;;
5379;SDS011;2713;42.680;23.310;2023-12-07T01:30:28;25.90;;;16.73;;
5379;SDS011;2713;42.680;23.310;2023-12-07T01:32:55;22.40;;;14.93;;
5379;SDS011;2713;42.680;23.310;2023-12-07T01:35:22;22.50;;;15.17;;
5379;SDS011;2713;42.680;23.310;2023-12-07T01:37:49;23.13;;;15.60;;
5379;SDS011;2713;42.680;23.310;2023-12-07T01:40:16;25.93;;;16.50;;
5379;SDS011;2713;42.680;23.310;2023-12-07T01:42:49;24.47;;;15.63;;
5379;SDS011;2713;42.680;23.310;2023-12-07T01:45:16;26.47;;;16.87;;
5379;SDS011;2713;42.680;23.310;2023-12-07T01:47:44;24.37;;;17.27;;
5379;SDS011;2713;42.680;23.310;2023-12-07T01:50:13;26.83;;;16.80;;
5379;SDS011;2713;42.680;23.310;2023-12-07T01:52:43;26.20;;;17.00;;
5379;SDS011;2713;42.680;23.310;2023-12-07T01:55:12;25.93;;;16.60;;
5379;SDS011;2713;42.680;23.310;2023-12-07T01:57:40;26.77;;;16.70;;
5379;SDS011;2713;42.680;23.310;2023-12-07T02:00:08;26.87;;;17.00;;
5379;SDS011;2713;42.680;23.310;2023-12-07T02:02:35;24.07;;;15.50;;
5379;SDS011;2713;42.680;23.310;2023-12-07T02:05:04;24.20;;;15.43;;
5379;SDS011;2713;42.680;23.310;2023-12-07T02:07:32;24.07;;;15.23;;
5379;SDS011;2713;42.680;23.310;2023-12-07T02:10:00;27.40;;;16.30;;
5379;SDS011;2713;42.680;23.310;2023-12-07T02:12:28;24.90;;;15.77;;
5379;SDS011;2713;42.680;23.310;2023-12-07T02:14:55;24.20;;;15.80;;
5379;SDS011;2713;42.680;23.310;2023-12-07T02:17:24;26.13;;;15.50;;
5379;SDS011;2713;42.680;23.310;2023-12-07T02:19:57;26.60;;;16.30;;
5379;SDS011;2713;42.680;23.310;2023-12-07T02:22:34;26.00;;;16.00;;
5379;SDS011;2713;42.680;23.310;2023-12-07T02:25:06;25.93;;;16.47;;
5379;SDS011;2713;42.680;23.310;2023-12-07T02:27:36;27.50;;;15.90;;
5379;SDS011;2713;42.680;23.310;2023-12-07T02:30:04;26.60;;;16.80;;
5379;SDS011;2713;42.680;23.310;2023-12-07T02:32:32;29.83;;;17.97;;
5379;SDS011;2713;42.680;23.310;2023-12-07T02:34:59;30.23;;;17.30;;
5379;SDS011;2713;42.680;23.310;2023-12-07T02:37:27;29.00;;;18.10;;
5379;SDS011;2713;42.680;23.310;2023-12-07T02:39:55;26.07;;;15.87;;
5379;SDS011;2713;42.680;23.310;2023-12-07T02:42:23;26.70;;;16.77;;
5379;SDS011;2713;42.680;23.310;2023-12-07T02:44:52;27.53;;;15.20;;
5379;SDS011;2713;42.680;23.310;2023-12-07T02:47:19;24.10;;;15.33;;
5379;SDS011;2713;42.680;23.310;2023-12-07T02:49:46;26.67;;;15.73;;
5379;SDS011;2713;42.680;23.310;2023-12-07T02:52:13;22.90;;;14.80;;
5379;SDS011;2713;42.680;23.310;2023-12-07T02:54:40;25.00;;;15.40;;
5379;SDS011;2713;42.680;23.310;2023-12-07T02:57:07;19.80;;;13.47;;
5379;SDS011;2713;42.680;23.310;2023-12-07T02:59:34;20.77;;;14.13;;
5379;SDS011;2713;42.680;23.310;2023-12-07T03:02:02;22.20;;;14.20;;
5379;SDS011;2713;42.680;23.310;2023-12-07T03:04:29;23.10;;;14.53;;
5379;SDS011;2713;42.680;23.310;2023-12-07T03:06:56;22.57;;;14.50;;
5379;SDS011;2713;42.680;23.310;2023-12-07T03:09:23;22.30;;;14.60;;
5379;SDS011;2713;42.680;23.310;2023-12-07T03:11:50;21.80;;;15.00;;
5379;SDS011;2713;42.680;23.310;2023-12-07T03:14:17;25.43;;;16.60;;
5379;SDS011;2713;42.680;23.310;2023-12-07T03:16:44;23.73;;;16.17;;
5379;SDS011;2713;42.680;23.310;2023-12-07T03:19:12;21.00;;;15.13;;
5379;SDS011;2713;42.680;23.310;2023-12-07T03:21:39;21.60;;;14.20;;
5379;SDS011;2713;42.680;23.310;2023-12-07T03:24:06;21.37;;;13.80;;
5379;SDS011;2713;42.680;23.310;2023-12-07T03:26:34;20.70;;;14.20;;
5379;SDS011;2713;42.680;23.310;2023-12-07T03:29:00;22.40;;;14.00;;
5379;SDS011;2713;42.680;23.310;2023-12-07T03:31:27;20.57;;;13.33;;
5379;SDS011;2713;42.680;23.310;2023-12-07T03:33:55;19.50;;;12.47;;
5379;SDS011;2713;42.680;23.310;2023-12-07T03:36:24;17.50;;;12.40;;
5379;SDS011;2713;42.680;23.310;2023-12-07T03:38:51;16.57;;;11.80;;
5379;SDS011;2713;42.680;23.310;2023-12-07T03:41:18;18.00;;;12.60;;
5379;SDS011;2713;42.680;23.310;2023-12-07T03:43:45;17.57;;;11.47;;
5379;SDS011;2713;42.680;23.310;2023-12-07T03:46:12;14.93;;;10.80;;
5379;SDS011;2713;42.680;23.310;2023-12-07T03:48:38;16.67;;;11.40;;
5379;SDS011;2713;42.680;23.310;2023-12-07T03:51:05;17.40;;;11.67;;
5379;SDS011;2713;42.680;23.310;2023-12-07T03:53:34;16.67;;;11.10;;
5379;SDS011;2713;42.680;23.310;2023-12-07T03:56:00;16.10;;;12.20;;
5379;SDS011;2713;42.680;23.310;2023-12-07T03:58:27;18.90;;;12.07;;
5379;SDS011;2713;42.680;23.310;2023-12-07T04:00:54;19.80;;;11.90;;
5379;SDS011;2713;42.680;23.310;2023-12-07T04:03:21;17.50;;;12.67;;
5379;SDS011;2713;42.680;23.310;2023-12-07T04:05:47;19.40;;;12.63;;
5379;SDS011;2713;42.680;23.310;2023-12-07T04:08:14;18.70;;;11.70;;
5379;SDS011;2713;42.680;23.310;2023-12-07T04:10:42;18.67;;;11.47;;
5379;SDS011;2713;42.680;23.310;2023-12-07T04:13:09;19.47;;;12.10;;
5379;SDS011;2713;42.680;23.310;2023-12-07T04:15:36;18.23;;;12.47;;
5379;SDS011;2713;42.680;23.310;2023-12-07T04:18:03;17.70;;;11.87;;
5379;SDS011;2713;42.680;23.310;2023-12-07T04:20:29;17.10;;;12.77;;
5379;SDS011;2713;42.680;23.310;2023-12-07T04:22:56;16.33;;;11.37;;
5379;SDS011;2713;42.680;23.310;2023-12-07T04:25:23;18.87;;;11.97;;
5379;SDS011;2713;42.680;23.310;2023-12-07T04:27:51;17.03;;;11.20;;
5379;SDS011;2713;42.680;23.310;2023-12-07T04:30:18;16.27;;;11.00;;
5379;SDS011;2713;42.680;23.310;2023-12-07T04:32:45;17.27;;;12.00;;
5379;SDS011;2713;42.680;23.310;2023-12-07T04:35:12;15.80;;;10.97;;
5379;SDS011;2713;42.680;23.310;2023-12-07T04:37:39;15.73;;;11.20;;
5379;SDS011;2713;42.680;23.310;2023-12-07T04:40:06;17.70;;;11.73;;
5379;SDS011;2713;42.680;23.310;2023-12-07T04:42:35;19.27;;;11.80;;
5379;SDS011;2713;42.680;23.310;2023-12-07T04:45:04;17.00;;;11.30;;
5379;SDS011;2713;42.680;23.310;2023-12-07T04:47:31;18.13;;;12.80;;
5379;SDS011;2713;42.680;23.310;2023-12-07T04:49:59;17.07;;;12.17;;
5379;SDS011;2713;42.680;23.310;2023-12-07T04:52:26;17.50;;;12.00;;
5379;SDS011;2713;42.680;23.310;2023-12-07T04:54:52;18.40;;;12.03;;
5379;SDS011;2713;42.680;23.310;2023-12-07T04:57:19;17.70;;;11.30;;
5379;SDS011;2713;42.680;23.310;2023-12-07T04:59:46;19.43;;;11.80;;
5379;SDS011;2713;42.680;23.310;2023-12-07T05:02:14;18.30;;;12.10;;
5379;SDS011;2713;42.680;23.310;2023-12-07T05:04:41;21.73;;;11.40;;
5379;SDS011;2713;42.680;23.310;2023-12-07T05:07:08;14.83;;;10.87;;
5379;SDS011;2713;42.680;23.310;2023-12-07T05:09:35;16.20;;;11.77;;
5379;SDS011;2713;42.680;23.310;2023-12-07T05:12:06;15.93;;;10.90;;
5379;SDS011;2713;42.680;23.310;2023-12-07T05:14:33;15.37;;;11.20;;
5379;SDS011;2713;42.680;23.310;2023-12-07T05:17:00;18.47;;;13.50;;
5379;SDS011;2713;42.680;23.310;2023-12-07T05:19:29;16.60;;;12.50;;
5379;SDS011;2713;42.680;23.310;2023-12-07T05:21:56;20.10;;;12.90;;
5379;SDS011;2713;42.680;23.310;2023-12-07T05:24:23;21.07;;;14.03;;
5379;SDS011;2713;42.680;23.310;2023-12-07T05:26:49;22.10;;;15.10;;
5379;SDS011;2713;42.680;23.310;2023-12-07T05:29:17;21.63;;;13.80;;
5379;SDS011;2713;42.680;23.310;2023-12-07T05:31:44;19.27;;;13.43;;
5379;SDS011;2713;42.680;23.310;2023-12-07T05:34:11;20.03;;;14.10;;
5379;SDS011;2713;42.680;23.310;2023-12-07T05:36:39;19.80;;;13.90;;
5379;SDS011;2713;42.680;23.310;2023-12-07T05:39:06;20.07;;;14.10;;
5379;SDS011;2713;42.680;23.310;2023-12-07T05:41:33;18.90;;;13.33;;
5379;SDS011;2713;42.680;23.310;2023-12-07T05:43:59;19.67;;;13.77;;
5379;SDS011;2713;42.680;23.310;2023-12-07T05:46:27;20.00;;;13.97;;
5379;SDS011;2713;42.680;23.310;2023-12-07T05:48:54;19.30;;;12.77;;
5379;SDS011;2713;42.680;23.310;2023-12-07T05:51:20;20.20;;;12.90;;
5379;SDS011;2713;42.680;23.310;2023-12-07T05:53:49;19.73;;;13.37;;
5379;SDS011;2713;42.680;23.310;2023-12-07T05:56:18;20.10;;;13.73;;
5379;SDS011;2713;42.680;23.310;2023-12-07T05:58:45;22.93;;;13.70;;
5379;SDS011;2713;42.680;23.310;2023-12-07T06:01:12;19.20;;;12.90;;
5379;SDS011;2713;42.680;23.310;2023-12-07T06:03:43;18.30;;;13.83;;
5379;SDS011;2713;42.680;23.310;2023-12-07T06:06:10;20.13;;;13.40;;
5379;SDS011;2713;42.680;23.310;2023-12-07T06:08:37;19.77;;;13.70;;
5379;SDS011;2713;42.680;23.310;2023-12-07T06:11:06;17.40;;;12.60;;
5379;SDS011;2713;42.680;23.310;2023-12-07T06:13:32;16.23;;;12.10;;
5379;SDS011;2713;42.680;23.310;2023-12-07T06:16:00;15.07;;;11.23;;
5379;SDS011;2713;42.680;23.310;2023-12-07T06:18:28;19.33;;;11.50;;
5379;SDS011;2713;42.680;23.310;2023-12-07T06:20:55;16.30;;;11.43;;
5379;SDS011;2713;42.680;23.310;2023-12-07T06:23:21;14.60;;;10.90;;
5379;SDS011;2713;42.680;23.310;2023-12-07T06:25:48;17.53;;;11.90;;
5379;SDS011;2713;42.680;23.310;2023-12-07T06:28:17;17.03;;;11.30;;
5379;SDS011;2713;42.680;23.310;2023-12-07T06:30:44;13.83;;;10.63;;
5379;SDS011;2713;42.680;23.310;2023-12-07T06:33:11;17.37;;;11.83;;
5379;SDS011;2713;42.680;23.310;2023-12-07T06:35:38;14.80;;;10.60;;
5379;SDS011;2713;42.680;23.310;2023-12-07T06:38:05;14.63;;;11.20;;
5379;SDS011;2713;42.680;23.310;2023-12-07T06:40:32;15.27;;;11.27;;
5379;SDS011;2713;42.680;23.310;2023-12-07T06:42:59;15.17;;;11.43;;
5379;SDS011;2713;42.680;23.310;2023-12-07T06:45:27;14.10;;;11.20;;
5379;SDS011;2713;42.680;23.310;2023-12-07T06:47:54;16.73;;;11.83;;
5379;SDS011;2713;42.680;23.310;2023-12-07T06:50:21;18.03;;;12.13;;
5379;SDS011;2713;42.680;23.310;2023-12-07T06:52:47;17.63;;;12.33;;
5379;SDS011;2713;42.680;23.310;2023-12-07T06:55:14;16.77;;;12.00;;
5379;SDS011;2713;42.680;23.310;2023-12-07T06:57:42;19.13;;;13.70;;
5379;SDS011;2713;42.680;23.310;2023-12-07T07:00:12;18.43;;;11.57;;
5379;SDS011;2713;42.680;23.310;2023-12-07T07:02:47;18.13;;;13.57;;
5379;SDS011;2713;42.680;23.310;2023-12-07T07:05:14;16.77;;;12.03;;
5379;SDS011;2713;42.680;23.310;2023-12-07T07:07:41;17.53;;;13.33;;
5379;SDS011;2713;42.680;23.310;2023-12-07T07:10:08;20.70;;;15.07;;
5379;SDS011;2713;42.680;23.310;2023-12-07T07:12:37;18.33;;;13.70;;
5379;SDS011;2713;42.680;23.310;2023-12-07T07:15:05;19.73;;;13.37;;
5379;SDS011;2713;42.680;23.310;2023-12-07T07:17:34;17.37;;;11.53;;
5379;SDS011;2713;42.680;23.310;2023-12-07T07:20:02;17.17;;;13.10;;
5379;SDS011;2713;42.680;23.310;2023-12-07T07:22:30;20.30;;;12.03;;
5379;SDS011;2713;42.680;23.310;2023-12-07T07:24:57;13.97;;;10.03;;
5379;SDS011;2713;42.680;23.310;2023-12-07T07:27:24;12.50;;;9.33;;
5379;SDS011;2713;42.680;23.310;2023-12-07T07:29:51;14.23;;;9.50;;
5379;SDS011;2713;42.680;23.310;2023-12-07T07:32:17;16.93;;;11.40;;
5379;SDS011;2713;42.680;23.310;2023-12-07T07:34:46;13.40;;;9.77;;
5379;SDS011;2713;42.680;23.310;2023-12-07T07:37:14;15.20;;;10.10;;
5379;SDS011;2713;42.680;23.310;2023-12-07T07:39:41;14.53;;;9.23;;
5379;SDS011;2713;42.680;23.310;2023-12-07T07:42:07;14.93;;;10.20;;
5379;SDS011;2713;42.680;23.310;2023-12-07T07:44:34;13.47;;;9.80;;
5379;SDS011;2713;42.680;23.310;2023-12-07T07:47:01;15.20;;;10.57;;
5379;SDS011;2713;42.680;23.310;2023-12-07T07:49:28;13.97;;;7.80;;
5379;SDS011;2713;42.680;23.310;2023-12-07T07:51:55;9.50;;;7.30;;
5379;SDS011;2713;42.680;23.310;2023-12-07T07:54:23;9.37;;;7.33;;
5379;SDS011;2713;42.680;23.310;2023-12-07T07:56:50;10.30;;;6.90;;
5379;SDS011;2713;42.680;23.310;2023-12-07T07:59:20;8.57;;;7.03;;
5379;SDS011;2713;42.680;23.310;2023-12-07T08:01:47;7.43;;;6.37;;
5379;SDS011;2713;42.680;23.310;2023-12-07T08:04:14;7.10;;;6.40;;
5379;SDS011;2713;42.680;23.310;2023-12-07T08:06:41;7.37;;;5.67;;
5379;SDS011;2713;42.680;23.310;2023-12-07T08:09:09;7.07;;;5.60;;
5379;SDS011;2713;42.680;23.310;2023-12-07T08:11:42;7.47;;;5.80;;
5379;SDS011;2713;42.680;23.310;2023-12-07T08:14:09;6.90;;;6.20;;
5379;SDS011;2713;42.680;23.310;2023-12-07T08:16:36;8.60;;;6.90;;
5379;SDS011;2713;42.680;23.310;2023-12-07T08:19:04;8.57;;;7.67;;
5379;SDS011;2713;42.680;23.310;2023-12-07T08:21:31;10.87;;;8.93;;
5379;SDS011;2713;42.680;23.310;2023-12-07T08:23:59;13.23;;;10.30;;
5379;SDS011;2713;42.680;23.310;2023-12-07T08:26:26;8.27;;;7.37;;
5379;SDS011;2713;42.680;23.310;2023-12-07T08:28:55;6.93;;;6.23;;
5379;SDS011;2713;42.680;23.310;2023-12-07T08:31:21;8.73;;;6.33;;
5379;SDS011;2713;42.680;23.310;2023-12-07T08:33:49;6.43;;;5.80;;
5379;SDS011;2713;42.680;23.310;2023-12-07T08:36:17;5.10;;;4.70;;
5379;SDS011;2713;42.680;23.310;2023-12-07T08:38:43;4.70;;;4.23;;
5379;SDS011;2713;42.680;23.310;2023-12-07T08:41:10;5.40;;;4.90;;
5379;SDS011;2713;42.680;23.310;2023-12-07T08:43:37;4.90;;;4.40;;
5379;SDS011;2713;42.680;23.310;2023-12-07T08:46:05;5.20;;;4.27;;
5379;SDS011;2713;42.680;23.310;2023-12-07T08:48:33;4.90;;;4.47;;
5379;SDS011;2713;42.680;23.310;2023-12-07T08:51:00;4.30;;;3.90;;
5379;SDS011;2713;42.680;23.310;2023-12-07T08:53:27;3.77;;;3.47;;
5379;SDS011;2713;42.680;23.310;2023-12-07T08:55:54;4.17;;;3.77;;
5379;SDS011;2713;42.680;23.310;2023-12-07T08:58:20;4.17;;;3.83;;
5379;SDS011;2713;42.680;23.310;2023-12-07T09:00:47;4.57;;;4.00;;
5379;SDS011;2713;42.680;23.310;2023-12-07T09:03:15;4.73;;;4.33;;
5379;SDS011;2713;42.680;23.310;2023-12-07T09:05:42;4.40;;;4.00;;
5379;SDS011;2713;42.680;23.310;2023-12-07T09:08:09;4.40;;;4.10;;
5379;SDS011;2713;42.680;23.310;2023-12-07T09:10:36;4.57;;;4.17;;
5379;SDS011;2713;42.680;23.310;2023-12-07T09:13:02;5.43;;;4.93;;
5379;SDS011;2713;42.680;23.310;2023-12-07T09:15:31;5.30;;;4.90;;
5379;SDS011;2713;42.680;23.310;2023-12-07T09:17:58;5.20;;;4.70;;
5379;SDS011;2713;42.680;23.310;2023-12-07T09:20:26;6.23;;;5.60;;
5379;SDS011;2713;42.680;23.310;2023-12-07T09:22:53;5.43;;;4.50;;
5379;SDS011;2713;42.680;23.310;2023-12-07T09:25:22;4.30;;;3.90;;
5379;SDS011;2713;42.680;23.310;2023-12-07T09:27:52;5.10;;;4.70;;
5379;SDS011;2713;42.680;23.310;2023-12-07T09:30:19;4.70;;;4.30;;
5379;SDS011;2713;42.680;23.310;2023-12-07T09:32:46;4.67;;;4.27;;
5379;SDS011;2713;42.680;23.310;2023-12-07T09:35:13;4.70;;;3.67;;
5379;SDS011;2713;42.680;23.310;2023-12-07T09:37:45;3.20;;;3.00;;
5379;SDS011;2713;42.680;23.310;2023-12-07T09:40:15;4.20;;;3.80;;
5379;SDS011;2713;42.680;23.310;2023-12-07T09:42:44;3.13;;;2.88;;
5379;SDS011;2713;42.680;23.310;2023-12-07T09:45:11;3.53;;;3.30;;
5379;SDS011;2713;42.680;23.310;2023-12-07T09:47:39;4.07;;;3.42;;
5379;SDS011;2713;42.680;23.310;2023-12-07T09:50:07;3.40;;;3.10;;
5379;SDS011;2713;42.680;23.310;2023-12-07T09:52:35;3.38;;;3.05;;
5379;SDS011;2713;42.680;23.310;2023-12-07T09:55:03;3.40;;;3.20;;
5379;SDS011;2713;42.680;23.310;2023-12-07T09:57:31;3.42;;;3.10;;
5379;SDS011;2713;42.680;23.310;2023-12-07T09:59:59;4.00;;;3.60;;
5379;SDS011;2713;42.680;23.310;2023-12-07T10:02:26;3.22;;;3.03;;
5379;SDS011;2713;42.680;23.310;2023-12-07T10:05:03;3.45;;;2.97;;
5379;SDS011;2713;42.680;23.310;2023-12-07T10:07:31;2.80;;;2.60;;
5379;SDS011;2713;42.680;23.310;2023-12-07T10:10:03;4.65;;;2.70;;
5379;SDS011;2713;42.680;23.310;2023-12-07T10:12:32;3.20;;;3.00;;
5379;SDS011;2713;42.680;23.310;2023-12-07T10:15:00;3.22;;;2.88;;
5379;SDS011;2713;42.680;23.310;2023-12-07T10:17:42;3.45;;;2.80;;
5379;SDS011;2713;42.680;23.310;2023-12-07T10:20:11;3.08;;;2.88;;
5379;SDS011;2713;42.680;23.310;2023-12-07T10:22:39;3.22;;;2.92;;
5379;SDS011;2713;42.680;23.310;2023-12-07T10:25:08;3.78;;;3.47;;
5379;SDS011;2713;42.680;23.310;2023-12-07T10:27:37;3.65;;;3.35;;
5379;SDS011;2713;42.680;23.310;2023-12-07T10:30:06;3.67;;;3.38;;
5379;SDS011;2713;42.680;23.310;2023-12-07T10:32:36;3.10;;;2.90;;
5379;SDS011;2713;42.680;23.310;2023-12-07T10:35:05;3.00;;;2.80;;
5379;SDS011;2713;42.680;23.310;2023-12-07T10:37:33;3.20;;;3.00;;
5379;SDS011;2713;42.680;23.310;2023-12-07T10:40:00;4.85;;;4.45;;
5379;SDS011;2713;42.680;23.310;2023-12-07T10:42:30;3.67;;;3.38;;
5379;SDS011;2713;42.680;23.310;2023-12-07T10:45:03;5.10;;;4.60;;
5379;SDS011;2713;42.680;23.310;2023-12-07T10:47:32;3.42;;;3.22;;
5379;SDS011;2713;42.680;23.310;2023-12-07T10:50:02;3.40;;;3.10;;
5379;SDS011;2713;42.680;23.310;2023-12-07T10:52:31;3.00;;;2.80;;
5379;SDS011;2713;42.680;23.310;2023-12-07T10:55:02;1.83;;;1.73;;
5379;SDS011;2713;42.680;23.310;2023-12-07T10:57:34;1.83;;;1.73;;
5379;SDS011;2713;42.680;23.310;2023-12-07T11:00:02;1.90;;;1.80;;
5379;SDS011;2713;42.680;23.310;2023-12-07T11:02:31;2.20;;;2.10;;
5379;SDS011;2713;42.680;23.310;2023-12-07T11:04:59;2.95;;;2.20;;
5379;SDS011;2713;42.680;23.310;2023-12-07T11:07:27;2.70;;;2.50;;
5379;SDS011;2713;42.680;23.310;2023-12-07T11:10:07;3.08;;;2.80;;
5379;SDS011;2713;42.680;23.310;2023-12-07T11:12:45;2.85;;;2.35;;
5379;SDS011;2713;42.680;23.310;2023-12-07T11:15:16;4.05;;;2.85;;
5379;SDS011;2713;42.680;23.310;2023-12-07T11:17:47;2.78;;;2.58;;
5379;SDS011;2713;42.680;23.310;2023-12-07T11:20:18;3.10;;;2.80;;
5379;SDS011;2713;42.680;23.310;2023-12-07T11:22:45;2.90;;;2.70;;
5379;SDS011;2713;42.680;23.310;2023-12-07T11:25:14;3.70;;;3.40;;
5379;SDS011;2713;42.680;23.310;2023-12-07T11:27:43;3.40;;;3.20;;
5379;SDS011;2713;42.680;23.310;2023-12-07T11:30:15;3.40;;;3.10;;
5379;SDS011;2713;42.680;23.310;2023-12-07T11:32:42;2.63;;;2.53;;
5379;SDS011;2713;42.680;23.310;2023-12-07T11:35:13;3.13;;;2.95;;
5379;SDS011;2713;42.680;23.310;2023-12-07T11:40:26;3.63;;;3.42;;
5379;SDS011;2713;42.680;23.310;2023-12-07T11:42:55;3.15;;;2.95;;
5379;SDS011;2713;42.680;23.310;2023-12-07T11:45:35;2.80;;;2.60;;
5379;SDS011;2713;42.680;23.310;2023-12-07T11:48:09;2.88;;;2.67;;
5379;SDS011;2713;42.680;23.310;2023-12-07T11:50:52;2.47;;;2.38;;
5379;SDS011;2713;42.680;23.310;2023-12-07T11:53:21;2.97;;;2.78;;
5379;SDS011;2713;42.680;23.310;2023-12-07T11:55:49;2.28;;;2.10;;
5379;SDS011;2713;42.680;23.310;2023-12-07T11:58:17;3.75;;;2.80;;
5379;SDS011;2713;42.680;23.310;2023-12-07T12:00:44;2.85;;;2.65;;
5379;SDS011;2713;42.680;23.310;2023-12-07T12:03:12;3.08;;;2.88;;
5379;SDS011;2713;42.680;23.310;2023-12-07T12:05:39;2.80;;;2.60;;
5379;SDS011;2713;42.680;23.310;2023-12-07T12:08:06;3.00;;;2.80;;
5379;SDS011;2713;42.680;23.310;2023-12-07T12:10:33;3.08;;;2.83;;
5379;SDS011;2713;42.680;23.310;2023-12-07T12:13:01;2.55;;;2.45;;
5379;SDS011;2713;42.680;23.310;2023-12-07T12:15:30;3.22;;;3.03;;
5379;SDS011;2713;42.680;23.310;2023-12-07T12:17:57;3.55;;;3.20;;
5379;SDS011;2713;42.680;23.310;2023-12-07T12:20:24;2.85;;;2.65;;
5379;SDS011;2713;42.680;23.310;2023-12-07T12:22:51;3.25;;;2.95;;
5379;SDS011;2713;42.680;23.310;2023-12-07T12:25:19;2.97;;;2.75;;
5379;SDS011;2713;42.680;23.310;2023-12-07T12:27:48;2.90;;;2.70;;
5379;SDS011;2713;42.680;23.310;2023-12-07T12:30:17;2.60;;;2.40;;
5379;SDS011;2713;42.680;23.310;2023-12-07T12:32:45;3.85;;;3.20;;
5379;SDS011;2713;42.680;23.310;2023-12-07T12:35:13;3.15;;;2.95;;
5379;SDS011;2713;42.680;23.310;2023-12-07T12:37:41;2.83;;;2.70;;
5379;SDS011;2713;42.680;23.310;2023-12-07T12:40:09;3.42;;;3.13;;
5379;SDS011;2713;42.680;23.310;2023-12-07T12:42:37;3.50;;;3.20;;
5379;SDS011;2713;42.680;23.310;2023-12-07T12:45:04;3.65;;;3.45;;
5379;SDS011;2713;42.680;23.310;2023-12-07T12:47:33;4.00;;;3.70;;
5379;SDS011;2713;42.680;23.310;2023-12-07T12:50:02;4.30;;;4.00;;
5379;SDS011;2713;42.680;23.310;2023-12-07T12:52:30;3.70;;;3.50;;
5379;SDS011;2713;42.680;23.310;2023-12-07T12:54:57;4.03;;;3.70;;
5379;SDS011;2713;42.680;23.310;2023-12-07T12:57:24;4.30;;;4.10;;
5379;SDS011;2713;42.680;23.310;2023-12-07T12:59:51;4.57;;;4.25;;
5379;SDS011;2713;42.680;23.310;2023-12-07T13:02:18;4.70;;;4.30;;
5379;SDS011;2713;42.680;23.310;2023-12-07T13:04:45;4.18;;;3.88;;
5379;SDS011;2713;42.680;23.310;2023-12-07T13:07:14;3.83;;;3.63;;
5379;SDS011;2713;42.680;23.310;2023-12-07T13:09:40;4.47;;;4.10;;
5379;SDS011;2713;42.680;23.310;2023-12-07T13:12:08;8.23;;;6.90;;
5379;SDS011;2713;42.680;23.310;2023-12-07T13:14:36;4.75;;;4.40;;
5379;SDS011;2713;42.680;23.310;2023-12-07T13:17:05;5.30;;;4.90;;
5379;SDS011;2713;42.680;23.310;2023-12-07T13:19:32;4.85;;;4.20;;
5379;SDS011;2713;42.680;23.310;2023-12-07T13:21:59;4.35;;;4.00;;
5379;SDS011;2713;42.680;23.310;2023-12-07T13:24:27;4.13;;;3.75;;
5379;SDS011;2713;42.680;23.310;2023-12-07T13:26:57;3.90;;;3.60;;
5379;SDS011;2713;42.680;23.310;2023-12-07T13:29:25;4.00;;;3.72;;
5379;SDS011;2713;42.680;23.310;2023-12-07T13:31:52;3.67;;;3.47;;
5379;SDS011;2713;42.680;23.310;2023-12-07T13:34:19;4.10;;;3.78;;
5379;SDS011;2713;42.680;23.310;2023-12-07T13:36:46;4.22;;;3.88;;
5379;SDS011;2713;42.680;23.310;2023-12-07T13:39:14;4.38;;;4.05;;
5379;SDS011;2713;42.680;23.310;2023-12-07T14:31:20;11.00;;;8.75;;
5379;SDS011;2713;42.680;23.310;2023-12-07T14:33:47;5.55;;;5.15;;
5379;SDS011;2713;42.680;23.310;2023-12-07T14:36:14;5.47;;;5.00;;
5379;SDS011;2713;42.680;23.310;2023-12-07T14:38:40;5.38;;;4.97;;
5379;SDS011;2713;42.680;23.310;2023-12-07T14:41:08;5.35;;;4.85;;
5379;SDS011;2713;42.680;23.310;2023-12-07T14:43:37;5.53;;;5.10;;
5379;SDS011;2713;42.680;23.310;2023-12-07T14:46:05;5.13;;;4.70;;
5379;SDS011;2713;42.680;23.310;2023-12-07T14:48:34;5.88;;;4.95;;
5379;SDS011;2713;42.680;23.310;2023-12-07T14:51:04;5.68;;;5.18;;
5379;SDS011;2713;42.680;23.310;2023-12-07T14:53:32;6.57;;;5.53;;
5379;SDS011;2713;42.680;23.310;2023-12-07T14:55:59;6.38;;;5.70;;
5379;SDS011;2713;42.680;23.310;2023-12-07T14:58:26;5.50;;;5.10;;
5379;SDS011;2713;42.680;23.310;2023-12-07T15:00:53;6.00;;;5.40;;
5379;SDS011;2713;42.680;23.310;2023-12-07T15:03:20;7.22;;;6.45;;
5379;SDS011;2713;42.680;23.310;2023-12-07T15:05:49;9.15;;;6.18;;
5379;SDS011;2713;42.680;23.310;2023-12-07T15:08:16;6.68;;;6.07;;
5379;SDS011;2713;42.680;23.310;2023-12-07T15:10:52;7.45;;;6.45;;
5379;SDS011;2713;42.680;23.310;2023-12-07T15:13:20;7.25;;;6.55;;
5379;SDS011;2713;42.680;23.310;2023-12-07T15:15:47;7.53;;;6.82;;
5379;SDS011;2713;42.680;23.310;2023-12-07T15:18:14;8.73;;;7.72;;
5379;SDS011;2713;42.680;23.310;2023-12-07T15:20:41;9.70;;;8.10;;
5379;SDS011;2713;42.680;23.310;2023-12-07T15:23:09;8.77;;;7.90;;
5379;SDS011;2713;42.680;23.310;2023-12-07T15:25:36;11.48;;;8.70;;
5379;SDS011;2713;42.680;23.310;2023-12-07T15:28:03;10.02;;;8.85;;
5379;SDS011;2713;42.680;23.310;2023-12-07T15:30:30;11.50;;;9.85;;
5379;SDS011;2713;42.680;23.310;2023-12-07T15:32:59;11.40;;;10.00;;
5379;SDS011;2713;42.680;23.310;2023-12-07T15:35:26;11.27;;;9.35;;
5379;SDS011;2713;42.680;23.310;2023-12-07T15:37:53;10.88;;;9.63;;
5379;SDS011;2713;42.680;23.310;2023-12-07T15:40:21;12.68;;;9.30;;
5379;SDS011;2713;42.680;23.310;2023-12-07T15:42:48;11.45;;;9.30;;